createdAt,value
2018-05-10T00:02:04.054Z,31.00
2018-05-10T00:04:31.637Z,33.23
2018-05-10T00:07:09.100Z,31.63
2018-05-10T00:09:36.930Z,34.40
2018-05-10T00:12:06.133Z,33.80
2018-05-10T00:14:33.638Z,34.40
2018-05-10T00:17:01.168Z,33.07
2018-05-10T00:19:28.670Z,32.47
2018-05-10T00:21:56.192Z,31.53
2018-05-10T00:24:23.962Z,34.80
2018-05-10T00:26:52.100Z,34.10
2018-05-10T00:29:19.651Z,33.70
2018-05-10T00:31:47.960Z,32.80
2018-05-10T00:34:15.478Z,31.27
2018-05-10T00:36:43.872Z,31.27
2018-05-10T00:39:11.426Z,30.87
2018-05-10T00:41:38.976Z,33.10
2018-05-10T00:44:07.292Z,28.40
2018-05-10T00:46:34.927Z,34.33
2018-05-10T00:49:03.209Z,28.20
2018-05-10T00:51:30.744Z,27.83
2018-05-10T00:53:59.054Z,25.97
2018-05-10T00:56:26.545Z,28.50
2018-05-10T00:58:54.240Z,27.80
2018-05-10T01:01:22.497Z,26.00
2018-05-10T01:03:50.003Z,26.23
2018-05-10T01:06:17.517Z,24.13
2018-05-10T01:08:45.107Z,25.03
2018-05-10T01:11:12.641Z,24.80
2018-05-10T01:13:40.901Z,24.30
2018-05-10T01:16:09.957Z,24.63
2018-05-10T01:18:37.457Z,24.90
2018-05-10T01:21:05.025Z,29.30
2018-05-10T01:23:33.263Z,26.53
2018-05-10T01:26:00.749Z,27.90
2018-05-10T01:28:29.857Z,27.50
2018-05-10T01:30:58.375Z,28.90
2018-05-10T01:33:25.897Z,30.17
2018-05-10T01:36:06.177Z,30.23
2018-05-10T01:38:33.676Z,38.33
2018-05-10T01:41:01.193Z,35.43
2018-05-10T01:43:28.757Z,38.23
2018-05-10T01:45:56.601Z,37.03
2018-05-10T01:48:24.117Z,38.60
2018-05-10T01:50:51.631Z,38.23
2018-05-10T01:53:19.157Z,40.03
2018-05-10T01:55:48.157Z,41.67
2018-05-10T01:58:16.436Z,41.80
2018-05-10T02:00:43.966Z,40.13
2018-05-10T02:03:12.489Z,40.40
2018-05-10T02:05:39.989Z,38.20
2018-05-10T02:08:07.475Z,40.63
2018-05-10T02:10:35.865Z,41.07
2018-05-10T02:13:04.133Z,39.53
2018-05-10T02:15:32.427Z,41.50
2018-05-10T02:18:00.711Z,39.50
2018-05-10T02:20:28.236Z,39.00
2018-05-10T02:22:55.716Z,39.60
2018-05-10T02:25:23.979Z,39.60
2018-05-10T02:27:52.265Z,39.00
2018-05-10T02:30:20.553Z,41.17
2018-05-10T02:32:48.101Z,37.33
2018-05-10T02:35:16.368Z,38.00
2018-05-10T02:37:44.739Z,37.20
2018-05-10T02:40:12.223Z,34.93
2018-05-10T02:42:40.501Z,36.13
2018-05-10T02:45:08.126Z,34.70
2018-05-10T02:47:35.511Z,33.53
2018-05-10T02:50:03.023Z,32.70
2018-05-10T02:52:30.529Z,31.70
2018-05-10T02:54:58.081Z,29.67
2018-05-10T02:57:26.333Z,29.40
2018-05-10T02:59:53.920Z,30.63
2018-05-10T03:02:21.483Z,30.00
2018-05-10T03:04:49.000Z,32.13
2018-05-10T03:07:16.493Z,28.70
2018-05-10T03:09:44.037Z,26.50
2018-05-10T03:12:12.409Z,27.00
2018-05-10T03:14:39.973Z,27.83
2018-05-10T03:17:08.243Z,27.00
2018-05-10T03:19:35.788Z,27.53
2018-05-10T03:22:03.296Z,26.57
2018-05-10T03:24:30.818Z,27.47
2018-05-10T03:26:59.104Z,26.97
2018-05-10T03:29:27.373Z,27.37
2018-05-10T03:31:55.653Z,27.60
2018-05-10T03:34:24.026Z,27.47
2018-05-10T03:36:52.313Z,28.60
2018-05-10T03:39:20.571Z,29.40
2018-05-10T03:41:48.877Z,26.77
2018-05-10T03:44:17.179Z,25.17
2018-05-10T03:46:44.721Z,26.17
2018-05-10T03:49:12.253Z,26.83
2018-05-10T03:51:40.520Z,29.43
2018-05-10T03:54:08.887Z,27.17
2018-05-10T03:56:36.514Z,26.57
2018-05-10T03:59:04.017Z,28.07
2018-05-10T04:01:32.298Z,27.93
2018-05-10T04:04:12.529Z,31.60
2018-05-10T04:06:52.064Z,30.63
2018-05-10T04:09:31.408Z,34.10
2018-05-10T04:11:58.933Z,32.20
2018-05-10T04:14:26.428Z,33.43
2018-05-10T04:16:55.034Z,33.47
2018-05-10T04:19:23.300Z,34.97
2018-05-10T04:21:51.577Z,33.70
2018-05-10T04:24:19.880Z,34.13
2018-05-10T04:26:47.420Z,32.60
2018-05-10T04:29:14.979Z,33.70
2018-05-10T04:31:43.260Z,32.80
2018-05-10T04:34:10.814Z,33.67
2018-05-10T04:36:39.083Z,31.60
2018-05-10T04:39:08.065Z,36.20
2018-05-10T04:41:36.370Z,32.20
2018-05-10T04:44:04.644Z,32.17
2018-05-10T04:46:32.173Z,34.83
2018-05-10T04:49:01.181Z,32.40
2018-05-10T04:51:29.474Z,32.67
2018-05-10T04:53:57.023Z,31.40
2018-05-10T04:56:25.375Z,31.63
2018-05-10T04:58:52.889Z,29.97
2018-05-10T05:01:20.453Z,29.50
2018-05-10T05:03:47.959Z,29.47
2018-05-10T05:06:16.239Z,26.30
2018-05-10T05:08:44.679Z,27.70
2018-05-10T05:11:12.196Z,26.97
2018-05-10T05:13:49.665Z,25.93
2018-05-10T05:16:17.947Z,23.57
2018-05-10T05:18:46.217Z,25.57
2018-05-10T05:21:13.918Z,23.20
2018-05-10T05:23:41.449Z,22.37
2018-05-10T05:26:09.741Z,20.93
2018-05-10T05:28:37.233Z,19.93
2018-05-10T05:31:04.795Z,19.37
2018-05-10T05:33:32.401Z,18.80
2018-05-10T05:36:00.788Z,18.20
2018-05-10T05:38:29.057Z,19.67
2018-05-10T05:40:57.310Z,17.53
2018-05-10T05:43:25.701Z,15.70
2018-05-10T05:45:53.163Z,16.63
2018-05-10T05:48:20.601Z,16.60
2018-05-10T05:50:48.953Z,18.40
2018-05-10T05:53:16.471Z,17.97
2018-05-10T05:55:43.997Z,16.63
2018-05-10T05:58:12.263Z,17.83
2018-05-10T06:00:39.789Z,19.27
2018-05-10T06:03:07.289Z,19.17
2018-05-10T06:05:35.574Z,18.43
2018-05-10T06:08:03.824Z,22.27
2018-05-10T06:10:31.409Z,20.10
2018-05-10T06:12:59.677Z,23.10
2018-05-10T06:15:27.966Z,21.80
2018-05-10T06:17:56.255Z,24.77
2018-05-10T06:20:23.754Z,23.60
2018-05-10T06:22:51.271Z,23.03
2018-05-10T06:25:18.815Z,26.30
2018-05-10T06:27:47.077Z,24.43
2018-05-10T06:30:15.365Z,25.27
2018-05-10T06:32:43.635Z,25.07
2018-05-10T06:35:11.909Z,26.47
2018-05-10T06:37:40.179Z,26.73
2018-05-10T06:40:08.479Z,25.40
2018-05-10T06:42:35.983Z,26.10
2018-05-10T06:45:04.279Z,26.97
2018-05-10T06:47:32.539Z,27.70
2018-05-10T06:50:01.142Z,27.00
2018-05-10T06:52:28.654Z,25.67
2018-05-10T06:54:56.167Z,27.07
2018-05-10T06:57:24.995Z,29.70
2018-05-10T06:59:52.499Z,29.00
2018-05-10T07:02:21.596Z,33.77
2018-05-10T07:04:49.878Z,29.33
2018-05-10T07:07:17.693Z,28.57
2018-05-10T07:09:45.293Z,25.30
2018-05-10T07:12:13.480Z,25.80
2018-05-10T07:14:41.753Z,26.83
2018-05-10T07:17:09.259Z,26.63
2018-05-10T07:19:36.819Z,27.83
2018-05-10T07:22:04.519Z,26.67
2018-05-10T07:24:33.636Z,27.60
2018-05-10T07:27:01.911Z,26.70
2018-05-10T07:29:29.440Z,26.17
2018-05-10T07:31:57.709Z,27.17
2018-05-10T07:34:25.242Z,27.27
2018-05-10T07:36:52.800Z,25.87
2018-05-10T07:39:20.440Z,23.27
2018-05-10T07:41:48.696Z,25.10
2018-05-10T07:44:16.998Z,26.40
2018-05-10T07:46:44.520Z,27.43
2018-05-10T07:49:12.092Z,25.93
2018-05-10T07:51:40.356Z,22.23
2018-05-10T07:54:07.872Z,21.23
2018-05-10T07:56:35.374Z,20.57
2018-05-10T07:59:02.896Z,22.30
2018-05-10T08:01:30.418Z,21.77
2018-05-10T08:03:57.983Z,20.00
2018-05-10T08:06:25.500Z,23.80
2018-05-10T08:08:53.029Z,20.53
2018-05-10T08:11:20.570Z,21.00
2018-05-10T08:13:48.122Z,20.77
2018-05-10T08:16:15.680Z,21.70
2018-05-10T08:18:43.248Z,22.17
2018-05-10T08:21:10.798Z,22.13
2018-05-10T08:23:47.142Z,20.70
2018-05-10T08:26:15.404Z,22.73
2018-05-10T08:28:43.720Z,23.50
2018-05-10T08:31:11.257Z,21.40
2018-05-10T08:33:38.820Z,25.67
2018-05-10T08:36:06.473Z,32.10
2018-05-10T08:38:34.888Z,28.97
2018-05-10T08:41:02.414Z,30.23
2018-05-10T08:43:30.048Z,29.13
2018-05-10T08:45:57.576Z,30.00
2018-05-10T08:48:25.092Z,31.33
2018-05-10T08:50:53.144Z,32.73
2018-05-10T08:53:21.429Z,37.43
2018-05-10T08:55:48.949Z,28.73
2018-05-10T08:58:16.555Z,25.10
2018-05-10T09:00:44.041Z,19.20
2018-05-10T09:03:11.605Z,21.60
2018-05-10T09:05:39.189Z,21.83
2018-05-10T09:08:07.529Z,20.77
2018-05-10T09:10:35.005Z,15.87
2018-05-10T09:13:02.537Z,12.60
2018-05-10T09:15:30.164Z,9.73
2018-05-10T09:17:58.529Z,8.50
2018-05-10T09:20:26.058Z,9.40
2018-05-10T09:22:53.556Z,7.23
2018-05-10T09:25:21.871Z,8.17
2018-05-10T09:27:49.458Z,7.33
2018-05-10T09:30:16.956Z,7.10
2018-05-10T09:32:45.220Z,7.30
2018-05-10T09:35:13.514Z,7.10
2018-05-10T09:37:41.877Z,5.57
2018-05-10T09:40:10.166Z,4.07
2018-05-10T09:42:38.462Z,4.03
2018-05-10T09:45:05.992Z,4.00
2018-05-10T09:47:33.501Z,4.20
2018-05-10T09:50:01.113Z,4.20
2018-05-10T09:52:29.369Z,3.80
2018-05-10T09:54:58.065Z,4.63
2018-05-10T09:57:26.341Z,4.17
2018-05-10T09:59:54.668Z,4.63
2018-05-10T10:02:22.959Z,4.03
2018-05-10T10:04:50.546Z,4.83
2018-05-10T10:07:18.841Z,2.80
2018-05-10T10:09:46.349Z,3.20
2018-05-10T10:12:13.865Z,3.60
2018-05-10T10:14:41.452Z,3.90
2018-05-10T10:17:09.074Z,4.60
2018-05-10T10:19:36.601Z,4.70
2018-05-10T10:22:04.895Z,6.20
2018-05-10T10:24:33.166Z,5.10
2018-05-10T10:27:01.553Z,5.13
2018-05-10T10:29:29.824Z,4.70
2018-05-10T10:31:58.117Z,5.10
2018-05-10T10:34:26.558Z,3.97
2018-05-10T10:36:54.262Z,5.17
2018-05-10T10:39:21.760Z,3.93
2018-05-10T10:41:49.294Z,5.40
2018-05-10T10:44:16.816Z,3.90
2018-05-10T10:46:45.204Z,4.20
2018-05-10T10:49:13.110Z,4.17
2018-05-10T10:51:41.502Z,4.57
2018-05-10T10:54:09.524Z,4.17
2018-05-10T10:56:37.464Z,3.87
2018-05-10T10:59:05.750Z,4.90
2018-05-10T11:01:34.315Z,4.43
2018-05-10T11:04:03.252Z,5.57
2018-05-10T11:06:30.732Z,4.40
2018-05-10T11:08:58.239Z,4.50
2018-05-10T11:11:26.807Z,4.53
2018-05-10T11:13:54.384Z,5.30
2018-05-10T11:16:22.972Z,6.53
2018-05-10T11:18:50.665Z,7.10
2018-05-10T11:21:18.291Z,8.70
2018-05-10T11:23:45.796Z,8.00
2018-05-10T11:26:13.596Z,8.70
2018-05-10T11:28:41.101Z,10.87
2018-05-10T11:31:09.193Z,10.63
2018-05-10T11:33:36.701Z,12.80
2018-05-10T11:36:05.041Z,11.07
2018-05-10T11:38:32.518Z,10.00
2018-05-10T11:41:00.868Z,8.80
2018-05-10T11:43:28.350Z,8.73
2018-05-10T11:45:56.676Z,10.30
2018-05-10T11:48:24.235Z,10.00
2018-05-10T11:50:52.074Z,8.77
2018-05-10T11:53:19.648Z,11.37
2018-05-10T11:55:47.136Z,10.43
2018-05-10T11:58:14.734Z,8.47
2018-05-10T12:00:43.028Z,8.90
2018-05-10T12:03:10.551Z,8.83
2018-05-10T12:05:38.086Z,10.73
2018-05-10T12:08:05.679Z,10.17
2018-05-10T12:10:34.154Z,14.40
2018-05-10T12:13:02.431Z,14.33
2018-05-10T12:15:29.952Z,14.37
2018-05-10T12:17:57.542Z,14.00
2018-05-10T12:20:25.127Z,14.97
2018-05-10T12:22:53.447Z,16.70
2018-05-10T12:25:21.004Z,20.43
2018-05-10T12:27:48.596Z,18.73
2018-05-10T12:30:16.192Z,20.40
2018-05-10T12:32:44.604Z,19.63
2018-05-10T12:35:12.116Z,19.70
2018-05-10T12:37:40.394Z,20.00
2018-05-10T12:40:08.701Z,18.67
2018-05-10T12:42:36.285Z,19.47
2018-05-10T12:45:03.871Z,19.90
2018-05-10T12:47:31.459Z,19.50
2018-05-10T12:49:59.155Z,19.63
2018-05-10T12:52:26.845Z,19.80
2018-05-10T12:54:54.345Z,18.20
2018-05-10T12:57:21.919Z,18.10
2018-05-10T12:59:49.487Z,18.40
2018-05-10T13:02:16.989Z,19.03
2018-05-10T13:04:45.313Z,18.13
2018-05-10T13:07:13.036Z,19.00
2018-05-10T13:09:40.631Z,18.70
2018-05-10T13:12:08.293Z,18.87
2018-05-10T13:14:35.839Z,16.80
2018-05-10T13:17:04.159Z,20.30
2018-05-10T13:19:31.666Z,16.80
2018-05-10T13:21:59.951Z,17.20
2018-05-10T13:24:27.461Z,19.53
2018-05-10T13:26:55.729Z,17.33
2018-05-10T13:29:23.250Z,18.17
2018-05-10T13:31:50.886Z,16.90
2018-05-10T13:34:19.158Z,18.23
2018-05-10T13:36:47.453Z,17.20
2018-05-10T13:39:15.060Z,20.10
2018-05-10T13:41:42.582Z,18.33
2018-05-10T13:44:10.095Z,16.80
2018-05-10T13:46:39.087Z,16.27
2018-05-10T13:49:07.396Z,20.80
2018-05-10T13:51:35.732Z,20.03
2018-05-10T13:54:03.278Z,17.13
2018-05-10T13:56:30.861Z,19.20
2018-05-10T13:58:58.413Z,19.93
2018-05-10T14:01:26.002Z,17.90
2018-05-10T14:03:54.282Z,18.43
2018-05-10T14:06:21.800Z,18.80
2018-05-10T14:08:49.422Z,18.40
2018-05-10T14:11:16.902Z,16.57
2018-05-10T14:13:44.395Z,19.23
2018-05-10T14:16:15.694Z,18.33
2018-05-10T14:18:43.394Z,19.87
2018-05-10T14:21:12.128Z,17.63
2018-05-10T14:23:39.708Z,18.40
2018-05-10T14:26:07.258Z,18.93
2018-05-10T14:28:34.742Z,18.43
2018-05-10T14:31:02.616Z,21.23
2018-05-10T14:33:30.148Z,19.50
2018-05-10T14:35:57.696Z,18.83
2018-05-10T14:38:25.193Z,17.47
2018-05-10T14:40:52.720Z,19.50
2018-05-10T14:43:20.243Z,17.93
2018-05-10T14:45:47.756Z,17.30
2018-05-10T14:48:15.288Z,18.47
2018-05-10T14:50:42.799Z,16.17
2018-05-10T14:53:10.321Z,18.40
2018-05-10T14:55:37.919Z,17.47
2018-05-10T14:58:06.205Z,16.50
2018-05-10T15:00:34.465Z,15.57
2018-05-10T15:03:02.841Z,18.67
2018-05-10T15:05:31.193Z,19.27
2018-05-10T15:07:58.725Z,17.10
2018-05-10T15:10:26.301Z,19.40
2018-05-10T15:12:53.817Z,17.30
2018-05-10T15:15:21.323Z,18.87
2018-05-10T15:17:48.861Z,17.43
2018-05-10T15:20:16.393Z,17.33
2018-05-10T15:22:44.765Z,17.60
2018-05-10T15:25:12.310Z,18.00
2018-05-10T15:27:40.652Z,17.20
2018-05-10T15:30:08.678Z,16.30
2018-05-10T15:32:36.446Z,16.30
2018-05-10T15:35:04.298Z,17.37
2018-05-10T15:37:32.992Z,16.00
2018-05-10T15:40:00.553Z,16.27
2018-05-10T15:42:28.112Z,16.70
2018-05-10T15:44:56.362Z,14.90
2018-05-10T15:47:25.088Z,15.57
2018-05-10T15:49:52.630Z,13.40
2018-05-10T15:52:20.996Z,13.80
2018-05-10T15:54:49.293Z,14.20
2018-05-10T15:57:16.861Z,13.53
2018-05-10T15:59:44.359Z,14.27
2018-05-10T16:02:13.338Z,13.67
2018-05-10T16:04:40.874Z,12.47
2018-05-10T16:07:08.386Z,10.40
2018-05-10T16:09:36.938Z,12.30
2018-05-10T16:12:04.534Z,11.40
2018-05-10T16:14:32.824Z,8.80
2018-05-10T16:17:00.383Z,10.40
2018-05-10T16:19:27.912Z,8.00
2018-05-10T16:21:56.200Z,12.80
2018-05-10T16:24:24.526Z,9.47
2018-05-10T16:26:58.436Z,10.77
2018-05-10T16:29:25.943Z,9.60
2018-05-10T16:31:54.242Z,8.00
2018-05-10T16:34:21.734Z,8.20
2018-05-10T16:36:49.298Z,6.77
2018-05-10T16:39:17.109Z,6.17
2018-05-10T16:41:44.647Z,6.80
2018-05-10T16:44:13.068Z,6.30
2018-05-10T16:46:40.579Z,5.70
2018-05-10T16:49:08.877Z,5.77
2018-05-10T16:51:37.179Z,5.70
2018-05-10T16:54:04.696Z,5.60
2018-05-10T16:56:32.248Z,5.30
2018-05-10T16:58:59.827Z,4.90
2018-05-10T17:01:28.246Z,5.03
2018-05-10T17:03:55.860Z,5.60
2018-05-10T17:09:07.462Z,5.40
2018-05-10T17:11:35.908Z,5.77
2018-05-10T17:14:03.540Z,4.90
2018-05-10T17:16:31.174Z,5.20
2018-05-10T17:18:58.683Z,7.73
2018-05-10T17:21:26.874Z,5.90
2018-05-10T17:23:54.494Z,6.20
2018-05-10T17:26:22.018Z,5.33
2018-05-10T17:28:50.277Z,5.27
2018-05-10T17:31:17.785Z,4.73
2018-05-10T17:33:45.717Z,5.00
2018-05-10T17:36:14.045Z,4.67
2018-05-10T17:38:41.662Z,7.87
2018-05-10T17:41:10.705Z,7.17
2018-05-10T17:43:38.368Z,19.30
2018-05-10T17:46:06.113Z,15.37
2018-05-10T17:48:33.657Z,12.57
2018-05-10T17:51:01.358Z,21.10
2018-05-10T17:53:28.937Z,11.93
2018-05-10T17:55:56.697Z,28.27
2018-05-10T17:58:25.724Z,22.50
2018-05-10T18:00:53.264Z,31.53
2018-05-10T18:03:21.518Z,27.83
2018-05-10T18:05:50.542Z,34.37
2018-05-10T18:08:18.840Z,17.07
2018-05-10T18:10:46.681Z,14.07
2018-05-10T18:13:15.060Z,12.33
2018-05-10T18:15:43.395Z,15.37
2018-05-10T18:18:10.917Z,9.30
2018-05-10T18:20:38.421Z,15.73
2018-05-10T18:23:06.021Z,10.90
2018-05-10T18:25:34.366Z,13.10
2018-05-10T18:28:03.391Z,12.23
2018-05-10T18:30:30.997Z,8.37
2018-05-10T18:32:59.068Z,10.77
2018-05-10T18:35:27.142Z,6.30
2018-05-10T18:37:54.844Z,7.27
2018-05-10T18:40:23.134Z,8.47
2018-05-10T18:42:50.838Z,7.20
2018-05-10T18:45:18.343Z,9.60
2018-05-10T18:47:47.972Z,8.23
2018-05-10T18:50:15.636Z,6.17
2018-05-10T18:52:43.148Z,6.37
2018-05-10T18:55:10.753Z,6.60
2018-05-10T18:57:38.245Z,11.97
2018-05-10T19:00:14.045Z,6.80
2018-05-10T19:02:41.545Z,8.03
2018-05-10T19:05:09.407Z,7.97
2018-05-10T19:07:37.029Z,7.87
2018-05-10T19:10:05.333Z,6.80
2018-05-10T19:12:32.875Z,7.60
2018-05-10T19:15:00.490Z,8.60
2018-05-10T19:17:28.745Z,7.67
2018-05-10T19:19:56.294Z,5.43
2018-05-10T19:22:23.809Z,7.03
2018-05-10T19:24:52.081Z,7.80
2018-05-10T19:27:20.387Z,7.77
2018-05-10T19:29:47.897Z,5.30
2018-05-10T19:32:15.403Z,8.00
2018-05-10T19:34:43.413Z,13.27
2018-05-10T19:37:11.777Z,5.37
2018-05-10T19:39:50.149Z,4.73
2018-05-10T19:42:20.484Z,5.40
2018-05-10T19:44:48.130Z,4.53
2018-05-10T19:47:17.229Z,4.43
2018-05-10T19:49:44.725Z,4.33
2018-05-10T19:52:12.264Z,4.87
2018-05-10T19:54:39.757Z,5.00
2018-05-10T19:57:07.286Z,4.20
2018-05-10T19:59:35.149Z,4.13
2018-05-10T20:02:02.781Z,3.60
2018-05-10T20:04:30.299Z,3.80
2018-05-10T20:06:57.844Z,4.40
2018-05-10T20:09:25.367Z,3.70
2018-05-10T20:11:52.892Z,5.70
2018-05-10T20:14:21.183Z,6.23
2018-05-10T20:16:49.508Z,5.17
2018-05-10T20:19:17.090Z,18.80
2018-05-10T20:21:45.451Z,8.43
2018-05-10T20:24:13.064Z,5.10
2018-05-10T20:26:40.578Z,5.47
2018-05-10T20:29:08.130Z,6.07
2018-05-10T20:31:35.659Z,5.87
2018-05-10T20:34:03.201Z,5.50
2018-05-10T20:36:30.728Z,5.70
2018-05-10T20:38:59.005Z,9.00
2018-05-10T20:41:27.985Z,5.27
2018-05-10T20:43:55.527Z,6.50
2018-05-10T20:46:23.038Z,6.67
2018-05-10T20:48:50.552Z,4.80
2018-05-10T20:51:18.044Z,4.60
2018-05-10T20:53:46.370Z,4.17
2018-05-10T20:56:13.883Z,7.40
2018-05-10T20:58:43.003Z,5.37
2018-05-10T21:01:10.695Z,4.00
2018-05-10T21:03:38.273Z,4.50
2018-05-10T21:06:05.993Z,4.40
2018-05-10T21:08:33.526Z,3.57
2018-05-10T21:11:01.065Z,3.40
2018-05-10T21:13:30.061Z,3.93
2018-05-10T21:15:58.473Z,5.87
2018-05-10T21:18:25.935Z,4.67
2018-05-10T21:20:53.449Z,5.30
2018-05-10T21:23:21.717Z,4.20
2018-05-10T21:25:50.729Z,5.27
2018-05-10T21:28:18.992Z,5.10
2018-05-10T21:30:46.520Z,5.10
2018-05-10T21:33:16.883Z,5.70
2018-05-10T21:35:45.781Z,4.40
2018-05-10T21:38:14.145Z,4.27
2018-05-10T21:40:42.425Z,5.10
2018-05-10T21:43:10.673Z,4.67
2018-05-10T21:45:38.473Z,5.03
2018-05-10T21:48:06.745Z,4.67
2018-05-10T21:50:35.025Z,4.60
2018-05-10T21:53:03.277Z,4.30
2018-05-10T21:55:31.573Z,4.40
2018-05-10T21:57:59.894Z,4.73
2018-05-10T22:00:27.613Z,4.73
2018-05-10T22:02:55.939Z,16.93
2018-05-10T22:05:23.541Z,10.10
2018-05-10T22:07:51.925Z,4.67
2018-05-10T22:10:20.303Z,4.33
2018-05-10T22:12:48.570Z,4.40
2018-05-10T22:15:16.957Z,4.10
2018-05-10T22:17:45.241Z,4.33
2018-05-10T22:20:13.553Z,4.80
2018-05-10T22:22:41.452Z,5.43
2018-05-10T22:25:08.894Z,4.40
2018-05-10T22:27:36.596Z,4.70
2018-05-10T22:30:05.162Z,6.17
2018-05-10T22:32:32.763Z,4.70
2018-05-10T22:35:00.292Z,4.90
2018-05-10T22:37:27.765Z,4.20
2018-05-10T22:39:55.274Z,4.93
2018-05-10T22:42:22.767Z,5.20
2018-05-10T22:44:51.139Z,4.80
2018-05-10T22:47:18.650Z,4.90
2018-05-10T22:49:46.168Z,5.60
2018-05-10T22:52:14.736Z,5.40
2018-05-10T22:54:43.067Z,4.97
2018-05-10T22:57:10.591Z,6.10
2018-05-10T22:59:38.102Z,5.23
2018-05-10T23:02:05.703Z,4.90
2018-05-10T23:04:33.269Z,5.73
2018-05-10T23:07:00.761Z,4.97
2018-05-10T23:09:28.256Z,5.13
2018-05-10T23:11:56.093Z,5.40
2018-05-10T23:14:23.600Z,6.10
2018-05-10T23:16:51.903Z,6.50
2018-05-10T23:19:19.398Z,5.73
2018-05-10T23:21:46.899Z,5.93
2018-05-10T23:24:14.414Z,6.30
2018-05-10T23:26:41.906Z,6.33
2018-05-10T23:29:09.429Z,4.67
2018-05-10T23:31:36.922Z,5.70
2018-05-10T23:34:05.241Z,7.00
2018-05-10T23:36:32.767Z,8.60
2018-05-10T23:39:00.280Z,7.20
2018-05-10T23:41:27.863Z,6.30
2018-05-10T23:43:56.212Z,6.40
2018-05-10T23:46:24.485Z,5.63
2018-05-10T23:48:52.012Z,5.77
2018-05-10T23:51:19.586Z,5.13
2018-05-10T23:53:47.070Z,6.37
2018-05-10T23:56:14.594Z,7.00
2018-05-10T23:58:42.096Z,6.62
